createdAt,value
2023-04-22T00:02:17.438Z,2.55
2023-04-22T00:04:46.605Z,2.90
2023-04-22T00:07:15.181Z,2.70
2023-04-22T00:09:42.508Z,2.15
2023-04-22T00:12:11.623Z,2.70
2023-04-22T00:14:38.902Z,2.30
2023-04-22T00:17:06.951Z,2.78
2023-04-22T00:19:34.706Z,2.33
2023-04-22T00:22:01.742Z,2.20
2023-04-22T00:24:28.396Z,2.67
2023-04-22T00:26:55.258Z,2.33
2023-04-22T00:29:21.933Z,2.20
2023-04-22T00:31:48.842Z,2.60
2023-04-22T00:34:18.016Z,2.40
2023-04-22T00:36:45.054Z,2.25
2023-04-22T00:39:12.850Z,2.30
2023-04-22T00:41:40.087Z,2.55
2023-04-22T00:44:10.941Z,2.85
2023-04-22T00:46:39.187Z,2.63
2023-04-22T00:49:07.214Z,2.58
2023-04-22T00:51:34.142Z,2.42
2023-04-22T00:54:04.759Z,2.50
2023-04-22T00:56:33.530Z,2.75
2023-04-22T00:59:00.433Z,2.40
2023-04-22T01:01:27.345Z,2.65
2023-04-22T01:03:54.820Z,2.63
2023-04-22T01:06:23.980Z,2.70
2023-04-22T01:08:51.027Z,2.60
2023-04-22T01:11:17.774Z,2.72
2023-04-22T01:13:44.478Z,2.95
2023-04-22T01:16:11.914Z,2.60
2023-04-22T01:18:38.780Z,2.88
2023-04-22T01:21:07.223Z,2.38
2023-04-22T01:23:34.216Z,2.70
2023-04-22T01:26:01.128Z,2.13
2023-04-22T01:28:28.613Z,2.97
2023-04-22T01:30:55.958Z,2.40
2023-04-22T01:33:22.789Z,2.50
2023-04-22T01:35:49.522Z,2.60
2023-04-22T01:38:16.570Z,2.45
2023-04-22T01:40:43.368Z,2.63
2023-04-22T01:43:10.193Z,2.65
2023-04-22T01:45:37.017Z,2.25
2023-04-22T01:48:04.867Z,2.83
2023-04-22T01:50:31.821Z,2.80
2023-04-22T01:52:59.087Z,2.50
2023-04-22T01:55:25.961Z,2.20
2023-04-22T01:57:52.689Z,2.42
2023-04-22T02:00:19.423Z,2.53
2023-04-22T02:02:46.256Z,2.22
2023-04-22T02:05:13.243Z,2.42
2023-04-22T02:07:40.011Z,2.80
2023-04-22T02:10:07.442Z,2.60
2023-04-22T02:12:34.210Z,2.53
2023-04-22T02:15:00.923Z,2.35
2023-04-22T02:17:27.883Z,2.33
2023-04-22T02:19:54.790Z,2.22
2023-04-22T02:22:23.650Z,2.20
2023-04-22T02:24:50.735Z,2.33
2023-04-22T02:27:17.623Z,2.28
2023-04-22T02:29:44.271Z,1.88
2023-04-22T02:32:11.010Z,2.20
2023-04-22T02:34:38.074Z,2.08
2023-04-22T02:37:05.520Z,2.45
2023-04-22T02:39:32.243Z,2.55
2023-04-22T02:41:59.002Z,2.42
2023-04-22T02:44:25.744Z,2.40
2023-04-22T02:46:52.597Z,2.60
2023-04-22T02:49:19.359Z,2.22
2023-04-22T02:51:46.136Z,2.47
2023-04-22T02:54:12.932Z,2.08
2023-04-22T02:56:39.587Z,2.33
2023-04-22T02:59:06.277Z,2.13
2023-04-22T03:01:33.151Z,2.20
2023-04-22T03:04:00.320Z,2.00
2023-04-22T03:06:27.567Z,2.20
2023-04-22T03:08:54.295Z,2.17
2023-04-22T03:11:20.963Z,2.35
2023-04-22T03:13:47.709Z,2.38
2023-04-22T03:16:14.468Z,1.90
2023-04-22T03:18:41.485Z,2.10
2023-04-22T03:21:08.426Z,2.00
2023-04-22T03:23:35.551Z,2.22
2023-04-22T03:26:02.273Z,2.28
2023-04-22T03:28:28.912Z,2.20
2023-04-22T03:30:55.681Z,2.05
2023-04-22T03:33:22.566Z,2.28
2023-04-22T03:35:49.777Z,2.30
2023-04-22T03:38:16.819Z,2.03
2023-04-22T03:40:43.892Z,2.05
2023-04-22T03:43:10.728Z,2.40
2023-04-22T03:45:37.684Z,2.08
2023-04-22T03:48:04.745Z,2.10
2023-04-22T03:50:31.648Z,2.20
2023-04-22T03:52:58.356Z,2.70
2023-04-22T03:55:25.145Z,2.65
2023-04-22T03:57:51.889Z,2.30
2023-04-22T04:00:18.638Z,2.53
2023-04-22T04:02:45.613Z,2.30
2023-04-22T04:05:12.810Z,2.42
2023-04-22T04:07:39.741Z,2.40
2023-04-22T04:10:07.373Z,2.67
2023-04-22T04:12:34.082Z,2.25
2023-04-22T04:15:00.897Z,2.38
2023-04-22T04:17:28.854Z,2.33
2023-04-22T04:19:55.692Z,2.33
2023-04-22T04:22:22.888Z,2.40
2023-04-22T04:24:49.907Z,1.83
2023-04-22T04:27:16.750Z,2.28
2023-04-22T04:29:43.581Z,2.30
2023-04-22T04:32:10.419Z,2.20
2023-04-22T04:34:37.730Z,2.35
2023-04-22T04:37:04.642Z,2.20
2023-04-22T04:39:32.944Z,2.50
2023-04-22T04:42:00.518Z,1.95
2023-04-22T04:44:27.523Z,2.58
2023-04-22T04:46:57.859Z,2.10
2023-04-22T04:49:24.776Z,2.22
2023-04-22T04:51:51.616Z,2.47
2023-04-22T04:54:18.495Z,2.38
2023-04-22T04:56:45.261Z,2.15
2023-04-22T04:59:12.080Z,2.20
2023-04-22T05:01:39.064Z,2.38
2023-04-22T05:04:06.058Z,2.20
2023-04-22T05:06:33.889Z,2.08
2023-04-22T05:09:00.636Z,1.98
2023-04-22T05:11:27.446Z,2.40
2023-04-22T05:13:54.245Z,2.05
2023-04-22T05:16:21.010Z,2.38
2023-04-22T05:18:47.791Z,2.05
2023-04-22T05:21:14.698Z,2.10
2023-04-22T05:23:41.391Z,2.30
2023-04-22T05:26:08.152Z,2.08
2023-04-22T05:28:34.987Z,2.47
2023-04-22T05:31:01.892Z,2.33
2023-04-22T05:33:28.591Z,2.28
2023-04-22T05:35:55.841Z,2.40
2023-04-22T05:38:22.592Z,2.58
2023-04-22T05:40:49.356Z,2.30
2023-04-22T05:43:16.297Z,2.40
2023-04-22T05:45:43.357Z,2.42
2023-04-22T05:48:10.126Z,2.40
2023-04-22T05:50:37.141Z,2.00
2023-04-22T05:53:03.796Z,2.10
2023-04-22T05:55:31.065Z,2.30
2023-04-22T05:57:57.782Z,2.30
2023-04-22T06:00:24.536Z,2.50
2023-04-22T06:02:51.348Z,2.55
2023-04-22T06:05:18.438Z,2.53
2023-04-22T06:07:45.198Z,2.22
2023-04-22T06:10:12.020Z,2.63
2023-04-22T06:12:38.706Z,1.92
2023-04-22T06:15:06.253Z,2.35
2023-04-22T06:17:33.118Z,2.13
2023-04-22T06:19:59.895Z,2.08
2023-04-22T06:22:26.554Z,2.40
2023-04-22T06:24:53.316Z,2.25
2023-04-22T06:27:20.087Z,2.40
2023-04-22T06:29:46.835Z,2.20
2023-04-22T06:32:13.513Z,2.25
2023-04-22T06:34:40.276Z,2.00
2023-04-22T06:37:06.990Z,2.65
2023-04-22T06:39:33.632Z,1.88
2023-04-22T06:42:01.582Z,2.25
2023-04-22T06:44:29.297Z,2.08
2023-04-22T06:46:57.859Z,2.47
2023-04-22T06:49:25.056Z,2.40
2023-04-22T06:51:51.794Z,2.30
2023-04-22T06:54:18.670Z,2.47
2023-04-22T06:56:45.558Z,2.05
2023-04-22T06:59:12.357Z,2.28
2023-04-22T07:01:38.990Z,2.35
2023-04-22T07:04:05.716Z,5.95
2023-04-22T07:06:32.933Z,5.70
2023-04-22T07:08:59.883Z,5.25
2023-04-22T07:11:27.674Z,5.15
2023-04-22T07:13:54.428Z,3.60
2023-04-22T07:16:21.163Z,3.75
2023-04-22T07:18:47.997Z,4.10
2023-04-22T07:21:14.779Z,3.40
2023-04-22T07:23:41.439Z,3.30
2023-04-22T07:26:08.235Z,3.13
2023-04-22T07:28:34.962Z,3.38
2023-04-22T07:31:02.397Z,3.22
2023-04-22T07:33:29.226Z,3.40
2023-04-22T07:35:55.946Z,3.28
2023-04-22T07:38:22.739Z,3.05
2023-04-22T07:40:49.387Z,2.97
2023-04-22T07:43:17.076Z,2.72
2023-04-22T07:45:44.071Z,3.10
2023-04-22T07:48:10.867Z,2.75
2023-04-22T07:50:38.819Z,3.20
2023-04-22T07:53:06.188Z,2.78
2023-04-22T07:55:33.285Z,2.53
2023-04-22T07:58:06.820Z,3.40
2023-04-22T08:00:35.107Z,2.97
2023-04-22T08:03:03.157Z,2.67
2023-04-22T08:05:30.053Z,2.78
2023-04-22T08:07:56.889Z,3.03
2023-04-22T08:10:23.832Z,2.60
2023-04-22T08:12:50.598Z,3.75
2023-04-22T08:15:17.608Z,3.33
2023-04-22T08:17:44.657Z,3.13
2023-04-22T08:20:11.549Z,2.85
2023-04-22T08:22:38.894Z,3.22
2023-04-22T08:25:06.786Z,3.08
2023-04-22T08:27:33.614Z,2.88
2023-04-22T08:30:00.496Z,2.65
2023-04-22T08:32:27.542Z,2.78
2023-04-22T08:35:03.592Z,2.80
2023-04-22T08:37:31.393Z,3.15
2023-04-22T08:39:58.142Z,3.15
2023-04-22T08:42:25.474Z,2.83
2023-04-22T08:44:53.816Z,3.15
2023-04-22T08:47:21.575Z,3.00
2023-04-22T08:49:50.533Z,3.33
2023-04-22T08:52:17.302Z,3.15
2023-04-22T08:54:44.021Z,2.95
2023-04-22T08:57:12.222Z,2.95
2023-04-22T08:59:39.277Z,2.97
2023-04-22T09:02:07.584Z,3.30
2023-04-22T09:04:34.901Z,3.42
2023-04-22T09:07:03.047Z,3.58
2023-04-22T09:09:32.020Z,3.08
2023-04-22T09:11:58.788Z,2.83
2023-04-22T09:14:26.712Z,2.53
2023-04-22T09:16:53.452Z,2.70
2023-04-22T09:19:24.351Z,2.80
2023-04-22T09:21:52.887Z,2.55
2023-04-22T09:24:20.969Z,2.60
2023-04-22T09:26:48.901Z,2.20
2023-04-22T09:29:16.642Z,2.20
2023-04-22T09:31:48.786Z,2.13
2023-04-22T09:34:15.575Z,2.22
2023-04-22T09:36:43.816Z,2.13
2023-04-22T09:39:10.546Z,2.08
2023-04-22T09:41:39.306Z,1.80
2023-04-22T09:44:10.472Z,2.10
2023-04-22T09:46:37.216Z,1.65
2023-04-22T09:49:03.913Z,1.95
2023-04-22T09:51:30.819Z,1.70
2023-04-22T09:54:11.399Z,1.90
2023-04-22T09:56:48.782Z,1.63
2023-04-22T09:59:28.078Z,1.52
2023-04-22T10:02:04.582Z,2.15
2023-04-22T10:04:31.545Z,1.80
2023-04-22T10:06:59.778Z,2.00
2023-04-22T10:09:26.521Z,2.08
2023-04-22T10:11:55.284Z,1.70
2023-04-22T10:14:22.713Z,1.90
2023-04-22T10:16:52.069Z,1.95
2023-04-22T10:19:22.410Z,1.95
2023-04-22T10:21:53.516Z,2.22
2023-04-22T10:24:20.653Z,2.22
2023-04-22T10:26:50.443Z,2.58
2023-04-22T10:29:19.697Z,2.17
2023-04-22T10:32:04.101Z,2.00
2023-04-22T10:34:34.397Z,2.20
2023-04-22T10:37:06.382Z,2.47
2023-04-22T10:39:33.461Z,2.50
2023-04-22T10:42:03.383Z,2.20
2023-04-22T10:44:47.222Z,2.63
2023-04-22T10:47:30.933Z,2.25
2023-04-22T10:50:29.019Z,2.80
2023-04-22T10:52:58.077Z,2.35
2023-04-22T10:55:26.268Z,2.70
2023-04-22T10:57:53.844Z,2.33
2023-04-22T11:00:25.562Z,2.58
2023-04-22T11:03:10.810Z,2.50
2023-04-22T11:05:38.613Z,2.58
2023-04-22T11:08:20.549Z,2.50
2023-04-22T11:10:50.229Z,2.70
2023-04-22T11:13:19.467Z,2.63
2023-04-22T11:15:55.568Z,2.33
2023-04-22T11:18:24.991Z,2.47
2023-04-22T11:20:53.395Z,2.65
2023-04-22T11:23:27.106Z,2.67
2023-04-22T11:26:01.838Z,3.05
2023-04-22T11:28:29.244Z,3.10
2023-04-22T11:31:15.134Z,2.90
2023-04-22T11:33:43.667Z,2.90
2023-04-22T11:36:13.350Z,2.90
2023-04-22T11:38:40.146Z,2.78
2023-04-22T11:41:07.211Z,2.83
2023-04-22T11:43:34.034Z,3.03
2023-04-22T11:46:00.951Z,2.50
2023-04-22T11:48:27.870Z,2.45
2023-04-22T11:51:09.689Z,2.90
2023-04-22T11:53:37.147Z,2.70
2023-04-22T11:56:04.156Z,3.08
2023-04-22T11:58:30.962Z,2.80
2023-04-22T12:00:59.289Z,3.00
2023-04-22T12:03:28.682Z,2.72
2023-04-22T12:06:03.686Z,2.58
2023-04-22T12:08:43.581Z,3.17
2023-04-22T12:11:11.904Z,3.15
2023-04-22T12:13:38.596Z,2.78
2023-04-22T12:16:13.469Z,2.72
2023-04-22T12:18:54.349Z,3.15
2023-04-22T12:21:25.957Z,3.10
2023-04-22T12:26:26.514Z,3.92
2023-04-22T12:28:54.628Z,3.95
2023-04-22T12:31:21.805Z,3.05
2023-04-22T12:33:48.865Z,3.25
2023-04-22T12:36:16.091Z,3.83
2023-04-22T12:38:42.833Z,3.10
2023-04-22T12:41:09.561Z,3.03
2023-04-22T12:43:36.934Z,2.95
2023-04-22T12:46:04.535Z,2.97
2023-04-22T12:48:31.684Z,3.13
2023-04-22T12:50:58.919Z,3.30
2023-04-22T12:53:28.401Z,3.22
2023-04-22T12:55:55.843Z,3.22
2023-04-22T12:58:22.741Z,3.50
2023-04-22T13:00:49.448Z,2.92
2023-04-22T13:03:16.482Z,3.10
2023-04-22T13:05:44.354Z,3.00
2023-04-22T13:08:11.157Z,2.60
2023-04-22T13:10:37.991Z,2.80
2023-04-22T13:15:34.884Z,2.50
2023-04-22T13:18:02.486Z,2.53
2023-04-22T13:20:29.260Z,3.17
2023-04-22T13:22:56.139Z,3.05
2023-04-22T13:25:22.768Z,2.72
2023-04-22T13:27:49.541Z,3.00
2023-04-22T13:30:16.374Z,2.75
2023-04-22T13:32:43.227Z,2.75
2023-04-22T13:35:10.045Z,2.80
2023-04-22T13:37:37.160Z,3.25
2023-04-22T13:40:05.960Z,2.90
2023-04-22T13:42:32.794Z,2.90
2023-04-22T13:44:59.476Z,2.90
2023-04-22T13:47:26.237Z,3.10
2023-04-22T13:49:53.030Z,3.67
2023-04-22T13:52:19.715Z,3.45
2023-04-22T13:54:46.637Z,3.58
2023-04-22T13:57:13.375Z,3.35
2023-04-22T13:59:41.735Z,3.33
2023-04-22T14:02:08.892Z,3.28
2023-04-22T14:04:35.759Z,3.28
2023-04-22T14:07:02.854Z,3.25
2023-04-22T14:09:29.708Z,3.28
2023-04-22T14:11:56.853Z,3.40
2023-04-22T14:14:23.826Z,3.13
2023-04-22T14:16:51.908Z,3.85
2023-04-22T14:19:20.133Z,3.53
2023-04-22T14:21:47.322Z,3.58
2023-04-22T14:24:14.225Z,3.25
2023-04-22T14:26:41.379Z,3.42
2023-04-22T14:29:08.352Z,3.40
2023-04-22T14:31:35.236Z,3.40
2023-04-22T14:34:02.022Z,3.38
2023-04-22T14:36:28.978Z,3.78
2023-04-22T14:38:56.366Z,4.15
2023-04-22T14:41:23.388Z,3.67
2023-04-22T14:43:50.236Z,3.83
2023-04-22T14:46:17.004Z,3.60
2023-04-22T14:48:43.768Z,2.92
2023-04-22T14:51:11.801Z,3.22
2023-04-22T14:53:38.563Z,3.30
2023-04-22T14:56:05.420Z,3.20
2023-04-22T14:58:32.357Z,3.92
2023-04-22T15:00:59.993Z,3.33
2023-04-22T15:03:27.604Z,3.63
2023-04-22T15:05:55.722Z,3.63
2023-04-22T15:08:25.162Z,3.50
2023-04-22T15:10:52.088Z,3.72
2023-04-22T15:13:19.843Z,3.88
2023-04-22T15:15:46.886Z,3.67
2023-04-22T15:18:13.819Z,3.83
2023-04-22T15:20:41.011Z,3.75
2023-04-22T15:23:07.801Z,3.25
2023-04-22T15:25:35.770Z,3.85
2023-04-22T15:28:03.126Z,3.67
2023-04-22T15:30:29.917Z,3.90
2023-04-22T15:32:56.862Z,3.40
2023-04-22T15:35:24.141Z,3.47
2023-04-22T15:37:50.979Z,3.78
2023-04-22T15:40:17.884Z,3.80
2023-04-22T15:42:44.687Z,3.40
2023-04-22T15:45:11.653Z,3.90
2023-04-22T15:47:39.711Z,3.67
2023-04-22T15:50:09.218Z,3.95
2023-04-22T15:52:38.004Z,3.92
2023-04-22T15:55:08.350Z,3.58
2023-04-22T15:57:35.692Z,3.58
2023-04-22T16:00:13.291Z,3.85
2023-04-22T16:02:42.254Z,3.53
2023-04-22T16:05:10.466Z,3.95
2023-04-22T16:07:37.447Z,3.58
2023-04-22T16:10:05.270Z,3.83
2023-04-22T16:12:34.030Z,3.30
2023-04-22T16:15:01.519Z,3.72
2023-04-22T16:17:28.576Z,3.90
2023-04-22T16:19:55.777Z,3.55
2023-04-22T16:22:22.691Z,3.35
2023-04-22T16:24:49.634Z,2.97
2023-04-22T16:27:18.111Z,3.25
2023-04-22T16:29:45.399Z,3.17
2023-04-22T16:32:12.278Z,3.03
2023-04-22T16:34:39.022Z,2.80
2023-04-22T16:37:08.490Z,3.10
2023-04-22T16:39:35.481Z,3.00
2023-04-22T16:42:03.073Z,3.28
2023-04-22T16:44:30.052Z,3.00
2023-04-22T16:46:56.958Z,2.88
2023-04-22T16:49:23.908Z,2.95
2023-04-22T16:51:51.093Z,3.33
2023-04-22T16:54:18.110Z,3.00
2023-04-22T16:56:44.842Z,2.85
2023-04-22T16:59:11.657Z,2.80
2023-04-22T17:01:39.778Z,2.88
2023-04-22T17:04:06.720Z,2.53
2023-04-22T17:06:33.603Z,2.72
2023-04-22T17:09:00.400Z,2.83
2023-04-22T17:11:27.231Z,3.00
2023-04-22T17:13:54.102Z,2.75
2023-04-22T17:16:21.009Z,2.83
2023-04-22T17:18:47.967Z,3.10
2023-04-22T17:21:16.628Z,3.10
2023-04-22T17:23:43.514Z,3.13
2023-04-22T17:26:10.298Z,3.92
2023-04-22T17:28:37.067Z,3.70
2023-04-22T17:31:04.126Z,3.70
2023-04-22T17:33:31.660Z,4.32
2023-04-22T17:35:58.561Z,4.15
2023-04-22T17:38:25.313Z,4.32
2023-04-22T17:40:52.128Z,4.35
2023-04-22T17:43:18.951Z,4.30
2023-04-22T17:45:45.915Z,4.20
2023-04-22T17:48:12.846Z,4.28
2023-04-22T17:50:39.685Z,4.00
2023-04-22T17:53:06.626Z,4.53
2023-04-22T17:55:36.413Z,4.38
2023-04-22T17:58:03.928Z,5.57
2023-04-22T18:00:31.976Z,7.20
2023-04-22T18:02:59.147Z,10.77
2023-04-22T18:05:27.238Z,9.75
2023-04-22T18:08:02.643Z,10.93
2023-04-22T18:10:30.530Z,10.88
2023-04-22T18:12:57.358Z,9.63
2023-04-22T18:15:24.409Z,9.63
2023-04-22T18:17:51.465Z,10.90
2023-04-22T18:20:20.583Z,13.32
2023-04-22T18:22:50.001Z,13.73
2023-04-22T18:25:16.845Z,11.57
2023-04-22T18:27:44.240Z,12.40
2023-04-22T18:30:11.305Z,11.90
2023-04-22T18:32:38.418Z,11.75
2023-04-22T18:35:05.861Z,11.38
2023-04-22T18:37:34.669Z,11.40
2023-04-22T18:40:02.287Z,11.05
2023-04-22T18:42:29.340Z,10.95
2023-04-22T18:44:56.282Z,11.10
2023-04-22T18:47:23.144Z,10.73
2023-04-22T18:49:50.025Z,10.73
2023-04-22T18:52:17.484Z,10.73
2023-04-22T18:54:44.466Z,10.57
2023-04-22T18:57:11.360Z,13.13
2023-04-22T18:59:38.709Z,15.73
2023-04-22T19:02:06.485Z,16.05
2023-04-22T19:04:33.350Z,16.92
2023-04-22T19:07:00.271Z,19.15
2023-04-22T19:09:27.086Z,21.38
2023-04-22T19:11:53.867Z,21.10
2023-04-22T19:14:20.660Z,21.38
2023-04-22T19:16:47.629Z,21.30
2023-04-22T19:19:14.425Z,19.13
2023-04-22T19:21:41.635Z,18.08
2023-04-22T19:24:09.697Z,16.67
2023-04-22T19:26:36.464Z,17.23
2023-04-22T19:29:03.347Z,17.38
2023-04-22T19:31:30.504Z,15.98
2023-04-22T19:33:57.394Z,15.30
2023-04-22T19:36:24.937Z,15.45
2023-04-22T19:38:51.658Z,15.18
2023-04-22T19:41:18.488Z,15.32
2023-04-22T19:43:46.157Z,14.65
2023-04-22T19:46:12.956Z,14.50
2023-04-22T19:48:40.107Z,14.73
2023-04-22T19:51:07.077Z,14.88
2023-04-22T19:53:34.926Z,13.10
2023-04-22T19:56:02.490Z,13.93
2023-04-22T19:58:29.826Z,14.38
2023-04-22T20:00:57.350Z,13.10
2023-04-22T20:03:24.926Z,13.32
2023-04-22T20:05:52.042Z,12.98
2023-04-22T20:08:19.883Z,13.60
2023-04-22T20:10:49.613Z,12.45
2023-04-22T20:13:17.420Z,13.15
2023-04-22T20:15:44.586Z,12.35
2023-04-22T20:18:12.108Z,12.13
2023-04-22T20:20:41.238Z,12.38
2023-04-22T20:23:12.698Z,12.13
2023-04-22T20:28:10.680Z,10.75
2023-04-22T20:30:37.778Z,11.30
2023-04-22T20:33:04.751Z,10.68
2023-04-22T20:35:32.122Z,10.40
2023-04-22T20:38:00.208Z,10.52
2023-04-22T20:40:29.020Z,10.95
2023-04-22T20:42:58.980Z,10.82
2023-04-22T20:45:27.211Z,10.85
2023-04-22T20:47:54.464Z,9.98
2023-04-22T20:50:21.358Z,10.35
2023-04-22T20:52:49.045Z,10.32
2023-04-22T20:55:17.043Z,9.68
2023-04-22T20:57:44.111Z,10.20
2023-04-22T21:00:11.720Z,9.13
2023-04-22T21:02:40.031Z,9.50
2023-04-22T21:05:07.527Z,9.25
2023-04-22T21:07:35.115Z,9.77
2023-04-22T21:10:02.201Z,8.90
2023-04-22T21:12:29.257Z,9.77
2023-04-22T21:14:56.343Z,9.52
2023-04-22T21:17:29.754Z,9.10
2023-04-22T21:19:57.799Z,8.68
2023-04-22T21:22:25.519Z,9.73
2023-04-22T21:24:52.899Z,9.10
2023-04-22T21:27:21.487Z,8.65
2023-04-22T21:29:49.452Z,8.60
2023-04-22T21:32:17.018Z,9.00
2023-04-22T21:34:44.632Z,8.80
2023-04-22T21:37:12.354Z,8.63
2023-04-22T21:39:40.582Z,9.52
2023-04-22T21:42:08.685Z,9.30
2023-04-22T21:44:36.997Z,8.70
2023-04-22T21:47:04.294Z,8.75
2023-04-22T21:49:31.201Z,10.15
2023-04-22T21:51:58.566Z,9.63
2023-04-22T21:54:25.528Z,10.10
2023-04-22T21:56:52.402Z,10.02
2023-04-22T21:59:19.254Z,9.68
2023-04-22T22:01:46.707Z,9.63
2023-04-22T22:04:16.038Z,9.20
2023-04-22T22:06:44.092Z,9.13
2023-04-22T22:09:11.729Z,9.10
2023-04-22T22:11:38.482Z,9.32
2023-04-22T22:14:05.330Z,9.27
2023-04-22T22:16:33.320Z,9.70
2023-04-22T22:19:04.457Z,9.20
2023-04-22T22:21:33.107Z,8.45
2023-04-22T22:24:00.141Z,9.60
2023-04-22T22:26:27.915Z,8.30
2023-04-22T22:28:55.105Z,8.68
2023-04-22T22:31:21.874Z,9.15
2023-04-22T22:33:48.662Z,7.93
2023-04-22T22:36:16.133Z,8.10
2023-04-22T22:38:43.114Z,9.07
2023-04-22T22:41:10.244Z,9.00
2023-04-22T22:43:37.189Z,8.95
2023-04-22T22:46:04.222Z,8.65
2023-04-22T22:48:31.212Z,8.90
2023-04-22T22:50:58.006Z,7.72
2023-04-22T22:53:25.836Z,8.10
2023-04-22T22:55:52.688Z,7.93
2023-04-22T22:58:19.429Z,7.97
2023-04-22T23:00:46.320Z,7.60
2023-04-22T23:03:13.356Z,7.32
2023-04-22T23:05:40.637Z,7.03
2023-04-22T23:08:07.332Z,6.95
2023-04-22T23:10:34.160Z,7.80
2023-04-22T23:13:01.166Z,7.53
2023-04-22T23:15:28.042Z,7.20
2023-04-22T23:17:54.872Z,7.03
2023-04-22T23:20:23.860Z,6.32
2023-04-22T23:22:51.900Z,7.45
2023-04-22T23:25:18.980Z,7.13
2023-04-22T23:27:46.221Z,7.07
2023-04-22T23:30:13.497Z,7.03
2023-04-22T23:32:41.099Z,7.22
2023-04-22T23:35:10.789Z,6.80
2023-04-22T23:37:38.305Z,7.03
2023-04-22T23:40:06.794Z,6.38
2023-04-22T23:42:33.541Z,6.82
2023-04-22T23:45:00.388Z,6.40
2023-04-22T23:47:27.259Z,6.85
2023-04-22T23:49:54.145Z,6.38
2023-04-22T23:52:20.956Z,6.18
2023-04-22T23:54:48.252Z,6.38
2023-04-22T23:57:16.249Z,6.63
2023-04-22T23:59:43.509Z,7.28
